createdAt,value
2023-04-22T00:00:17.983Z,7.00
2023-04-22T00:02:45.924Z,7.00
2023-04-22T00:05:15.194Z,6.90
2023-04-22T00:07:44.359Z,6.90
2023-04-22T00:10:12.175Z,6.90
2023-04-22T00:12:39.301Z,6.90
2023-04-22T00:15:07.040Z,6.90
2023-04-22T00:17:34.211Z,6.90
2023-04-22T00:20:01.628Z,6.90
2023-04-22T00:22:28.933Z,6.90
2023-04-22T00:24:56.204Z,6.90
2023-04-22T00:27:23.279Z,6.80
2023-04-22T00:29:50.549Z,6.80
2023-04-22T00:32:17.845Z,6.80
2023-04-22T00:34:44.864Z,6.80
2023-04-22T00:37:12.178Z,6.90
2023-04-22T00:39:40.077Z,6.80
2023-04-22T00:42:08.046Z,6.90
2023-04-22T00:44:36.909Z,6.90
2023-04-22T00:47:04.561Z,6.90
2023-04-22T00:49:31.841Z,6.90
2023-04-22T00:51:58.852Z,6.80
2023-04-22T00:54:26.532Z,6.80
2023-04-22T00:56:53.621Z,6.80
2023-04-22T00:59:21.697Z,6.80
2023-04-22T01:01:48.981Z,6.80
2023-04-22T01:04:16.307Z,6.90
2023-04-22T01:06:44.668Z,6.80
2023-04-22T01:09:12.044Z,6.70
2023-04-22T01:11:39.299Z,6.70
2023-04-22T01:14:06.590Z,6.80
2023-04-22T01:16:35.800Z,6.70
2023-04-22T01:19:03.164Z,6.70
2023-04-22T01:21:33.653Z,6.70
2023-04-22T01:24:02.191Z,6.60
2023-04-22T01:26:29.556Z,6.60
2023-04-22T01:28:56.814Z,6.50
2023-04-22T01:31:24.322Z,6.50
2023-04-22T01:33:51.853Z,6.50
2023-04-22T01:36:19.055Z,6.50
2023-04-22T01:38:46.241Z,6.50
2023-04-22T01:41:14.477Z,6.50
2023-04-22T01:43:44.294Z,6.50
2023-04-22T01:46:11.676Z,6.50
2023-04-22T01:48:40.289Z,6.40
2023-04-22T01:51:07.464Z,6.30
2023-04-22T01:53:35.757Z,6.30
2023-04-22T01:56:03.148Z,6.20
2023-04-22T01:58:30.955Z,6.10
2023-04-22T02:00:58.252Z,6.10
2023-04-22T02:03:25.636Z,6.00
2023-04-22T02:05:54.056Z,6.00
2023-04-22T02:08:21.135Z,6.00
2023-04-22T02:10:48.212Z,6.00
2023-04-22T02:13:15.674Z,5.90
2023-04-22T02:15:42.946Z,5.90
2023-04-22T02:18:11.211Z,5.90
2023-04-22T02:20:38.342Z,5.90
2023-04-22T02:23:06.641Z,6.00
2023-04-22T02:25:33.736Z,6.00
2023-04-22T02:28:00.971Z,5.90
2023-04-22T02:30:28.286Z,6.00
2023-04-22T02:32:56.217Z,6.00
2023-04-22T02:35:23.566Z,6.00
2023-04-22T02:37:51.435Z,6.00
2023-04-22T02:40:18.958Z,6.00
2023-04-22T02:42:46.139Z,5.90
2023-04-22T02:45:13.191Z,5.80
2023-04-22T02:47:40.526Z,5.80
2023-04-22T02:50:08.374Z,5.70
2023-04-22T02:52:35.616Z,5.70
2023-04-22T02:55:02.681Z,5.70
2023-04-22T02:57:30.039Z,5.70
2023-04-22T02:59:57.285Z,5.80
2023-04-22T03:02:25.145Z,5.70
2023-04-22T03:05:04.744Z,5.70
2023-04-22T03:07:31.932Z,5.50
2023-04-22T03:09:59.869Z,5.50
2023-04-22T03:12:26.979Z,5.50
2023-04-22T03:14:54.419Z,5.40
2023-04-22T03:17:23.382Z,5.40
2023-04-22T03:19:50.506Z,5.40
2023-04-22T03:22:17.678Z,5.40
2023-04-22T03:24:45.451Z,5.40
2023-04-22T03:27:12.619Z,5.40
2023-04-22T03:29:40.133Z,5.40
2023-04-22T03:32:08.005Z,5.30
2023-04-22T03:34:37.426Z,5.40
2023-04-22T03:37:07.133Z,5.30
2023-04-22T03:39:34.320Z,5.20
2023-04-22T03:42:01.957Z,5.10
2023-04-22T03:44:29.839Z,5.10
2023-04-22T03:46:56.932Z,5.10
2023-04-22T03:49:28.700Z,5.10
2023-04-22T03:51:56.654Z,5.10
2023-04-22T03:54:26.659Z,5.10
2023-04-22T03:56:53.754Z,5.20
2023-04-22T03:59:22.917Z,5.20
2023-04-22T04:01:52.050Z,5.20
2023-04-22T04:04:23.477Z,5.20
2023-04-22T04:06:56.548Z,5.10
2023-04-22T04:09:23.663Z,5.10
2023-04-22T04:11:51.770Z,5.00
2023-04-22T04:14:18.910Z,5.00
2023-04-22T04:16:47.853Z,5.00
2023-04-22T04:19:33.139Z,4.90
2023-04-22T04:22:01.957Z,5.00
2023-04-22T04:24:32.893Z,5.10
2023-04-22T04:27:06.505Z,5.10
2023-04-22T04:29:42.273Z,5.20
2023-04-22T04:32:14.815Z,5.40
2023-04-22T04:34:42.668Z,5.50
2023-04-22T04:37:10.395Z,5.50
2023-04-22T04:39:50.115Z,5.50
2023-04-22T04:42:20.669Z,5.50
2023-04-22T04:44:54.691Z,5.50
2023-04-22T04:47:22.727Z,5.60
2023-04-22T04:49:54.500Z,5.60
2023-04-22T04:52:22.072Z,5.70
2023-04-22T04:54:49.277Z,5.80
2023-04-22T04:57:16.538Z,5.90
2023-04-22T04:59:43.793Z,6.00
2023-04-22T05:02:11.271Z,6.10
2023-04-22T05:04:38.742Z,6.20
2023-04-22T05:07:06.103Z,6.30
2023-04-22T05:09:37.781Z,6.40
2023-04-22T05:12:05.600Z,6.50
2023-04-22T05:14:32.819Z,6.60
2023-04-22T05:17:00.164Z,6.70
2023-04-22T05:19:28.704Z,6.90
2023-04-22T05:21:57.063Z,7.10
2023-04-22T05:24:24.682Z,7.20
2023-04-22T05:26:51.937Z,7.30
2023-04-22T05:29:20.089Z,7.40
2023-04-22T05:31:47.772Z,7.60
2023-04-22T05:34:15.163Z,7.70
2023-04-22T05:36:43.203Z,7.80
2023-04-22T05:39:12.324Z,8.00
2023-04-22T05:41:40.647Z,8.10
2023-04-22T05:44:11.120Z,8.20
2023-04-22T05:46:39.218Z,8.30
2023-04-22T05:49:06.459Z,8.40
2023-04-22T05:51:53.476Z,8.50
2023-04-22T05:54:27.225Z,8.70
2023-04-22T05:56:54.537Z,8.80
2023-04-22T05:59:22.025Z,8.90
2023-04-22T06:01:50.135Z,9.10
2023-04-22T06:04:20.208Z,9.40
2023-04-22T06:06:48.184Z,10.30
2023-04-22T06:09:15.324Z,12.30
2023-04-22T06:11:42.544Z,14.90
2023-04-22T06:14:09.741Z,17.50
2023-04-22T06:16:37.144Z,19.50
2023-04-22T06:19:08.436Z,20.80
2023-04-22T06:21:38.257Z,21.60
2023-04-22T06:24:06.154Z,22.50
2023-04-22T06:26:33.330Z,23.40
2023-04-22T06:29:02.953Z,24.10
2023-04-22T06:31:30.264Z,24.30
2023-04-22T06:33:57.494Z,24.40
2023-04-22T06:36:25.445Z,24.80
2023-04-22T06:38:59.327Z,25.50
2023-04-22T06:41:40.100Z,24.90
2023-04-22T06:44:21.020Z,25.30
2023-04-22T06:47:01.781Z,25.70
2023-04-22T06:49:49.248Z,25.40
2023-04-22T06:52:24.327Z,25.60
2023-04-22T06:54:54.571Z,26.30
2023-04-22T06:57:21.723Z,26.70
2023-04-22T06:59:48.822Z,26.20
2023-04-22T07:02:16.757Z,25.30
2023-04-22T07:04:44.687Z,25.80
2023-04-22T07:07:12.379Z,26.50
2023-04-22T07:09:40.971Z,27.90
2023-04-22T07:12:08.553Z,27.90
2023-04-22T07:14:35.698Z,28.00
2023-04-22T07:17:02.892Z,28.30
2023-04-22T07:19:30.652Z,28.50
2023-04-22T07:21:58.681Z,28.60
2023-04-22T07:24:26.254Z,29.00
2023-04-22T07:26:53.320Z,28.60
2023-04-22T07:29:20.518Z,28.70
2023-04-22T07:31:47.768Z,28.50
2023-04-22T07:34:15.122Z,28.50
2023-04-22T07:36:42.253Z,28.60
2023-04-22T07:39:09.908Z,29.30
2023-04-22T07:41:37.197Z,29.70
2023-04-22T07:44:04.361Z,30.30
2023-04-22T07:46:31.575Z,30.40
2023-04-22T07:48:58.850Z,30.30
2023-04-22T07:51:26.055Z,31.00
2023-04-22T07:53:53.214Z,31.50
2023-04-22T07:56:20.370Z,31.70
2023-04-22T07:58:47.576Z,30.90
2023-04-22T08:01:14.750Z,31.30
2023-04-22T08:03:42.205Z,31.80
2023-04-22T08:06:09.533Z,31.70
2023-04-22T08:08:36.742Z,32.00
2023-04-22T08:11:03.994Z,31.80
2023-04-22T08:13:31.156Z,32.20
2023-04-22T08:15:58.329Z,32.30
2023-04-22T08:18:25.659Z,32.40
2023-04-22T08:20:52.751Z,31.40
2023-04-22T08:23:21.477Z,31.20
2023-04-22T08:25:49.248Z,30.90
2023-04-22T08:28:16.248Z,30.70
2023-04-22T08:30:43.323Z,30.60
2023-04-22T08:33:11.274Z,30.80
2023-04-22T08:35:41.615Z,30.50
2023-04-22T08:38:08.712Z,29.80
2023-04-22T08:40:36.083Z,29.30
2023-04-22T08:43:03.324Z,28.80
2023-04-22T08:45:31.189Z,27.60
2023-04-22T08:47:58.565Z,26.30
2023-04-22T08:50:26.326Z,25.00
2023-04-22T08:52:53.417Z,24.10
2023-04-22T08:55:20.586Z,23.60
2023-04-22T08:57:48.196Z,23.20
2023-04-22T09:00:16.525Z,23.10
2023-04-22T09:02:46.016Z,22.60
2023-04-22T09:05:14.250Z,22.10
2023-04-22T09:07:41.567Z,22.10
2023-04-22T09:10:11.894Z,22.00
2023-04-22T09:12:41.260Z,21.50
2023-04-22T09:15:09.885Z,21.10
2023-04-22T09:17:38.457Z,21.10
2023-04-22T09:20:07.385Z,21.20
2023-04-22T09:22:45.478Z,21.50
2023-04-22T09:25:17.599Z,21.80
2023-04-22T09:27:52.586Z,21.90
2023-04-22T09:30:25.074Z,21.70
2023-04-22T09:32:54.348Z,21.80
2023-04-22T09:35:28.046Z,21.70
2023-04-22T09:37:55.744Z,21.40
2023-04-22T09:40:23.697Z,21.10
2023-04-22T09:42:52.553Z,21.20
2023-04-22T09:45:41.174Z,21.00
2023-04-22T09:48:10.916Z,20.90
2023-04-22T09:50:40.286Z,21.10
2023-04-22T09:53:09.784Z,21.20
2023-04-22T09:55:41.566Z,21.50
2023-04-22T09:58:12.096Z,21.30
2023-04-22T10:00:42.516Z,21.20
2023-04-22T10:03:10.861Z,21.10
2023-04-22T10:05:38.492Z,21.10
2023-04-22T10:08:06.945Z,20.90
2023-04-22T10:10:34.742Z,21.00
2023-04-22T10:13:04.339Z,21.00
2023-04-22T10:15:35.686Z,20.80
2023-04-22T10:18:07.725Z,20.80
2023-04-22T10:20:38.052Z,20.90
2023-04-22T10:23:06.626Z,20.80
2023-04-22T10:25:33.756Z,21.00
2023-04-22T10:28:06.924Z,20.90
2023-04-22T10:30:37.005Z,21.00
2023-04-22T10:33:24.242Z,21.00
2023-04-22T10:36:11.356Z,20.90
2023-04-22T10:38:40.551Z,21.20
2023-04-22T10:41:13.971Z,21.10
2023-04-22T10:43:42.206Z,21.10
2023-04-22T10:46:40.346Z,21.20
2023-04-22T10:49:12.876Z,21.10
2023-04-22T10:51:42.409Z,20.90
2023-04-22T10:54:31.844Z,20.50
2023-04-22T10:57:05.555Z,20.10
2023-04-22T10:59:34.747Z,20.00
2023-04-22T11:02:02.746Z,20.20
2023-04-22T11:04:30.294Z,20.10
2023-04-22T11:07:17.275Z,20.30
2023-04-22T11:09:46.367Z,20.60
2023-04-22T11:12:39.859Z,20.70
2023-04-22T11:15:07.438Z,20.80
2023-04-22T11:17:35.981Z,21.00
2023-04-22T11:20:05.468Z,21.40
2023-04-22T11:22:36.712Z,21.70
2023-04-22T11:25:05.642Z,21.60
2023-04-22T11:27:32.883Z,21.50
2023-04-22T11:30:00.982Z,21.60
2023-04-22T11:32:29.023Z,21.60
2023-04-22T11:34:56.800Z,21.50
2023-04-22T11:37:24.823Z,21.50
2023-04-22T11:40:16.905Z,21.30
2023-04-22T11:42:39.707Z,21.20
2023-04-22T11:45:08.144Z,21.10
2023-04-22T11:47:36.516Z,21.20
2023-04-22T11:50:07.219Z,21.00
2023-04-22T11:52:57.531Z,20.70
2023-04-22T11:55:30.394Z,20.60
2023-04-22T11:58:10.040Z,20.80
2023-04-22T12:00:40.823Z,21.00
2023-04-22T12:03:15.110Z,21.20
2023-04-22T12:05:47.430Z,21.50
2023-04-22T12:08:16.569Z,21.60
2023-04-22T12:10:46.402Z,22.00
2023-04-22T12:13:23.250Z,21.90
2023-04-22T12:15:54.627Z,21.80
2023-04-22T12:18:39.714Z,21.80
2023-04-22T12:21:07.990Z,21.70
2023-04-22T12:23:56.115Z,21.80
2023-04-22T12:26:26.597Z,21.60
2023-04-22T12:28:55.480Z,21.30
2023-04-22T12:31:22.626Z,21.20
2023-04-22T12:33:50.197Z,21.30
2023-04-22T12:36:21.032Z,21.10
2023-04-22T12:38:48.489Z,20.60
2023-04-22T12:41:17.234Z,20.20
2023-04-22T12:43:44.620Z,19.90
2023-04-22T12:46:11.945Z,20.10
2023-04-22T12:48:39.240Z,20.40
2023-04-22T12:51:07.204Z,20.60
2023-04-22T12:53:34.763Z,20.90
2023-04-22T12:56:01.915Z,21.00
2023-04-22T12:58:29.199Z,21.00
2023-04-22T13:00:56.469Z,21.00
2023-04-22T13:03:23.815Z,20.70
2023-04-22T13:05:52.301Z,20.60
2023-04-22T13:08:19.502Z,20.50
2023-04-22T13:10:46.673Z,20.70
2023-04-22T13:13:18.243Z,20.70
2023-04-22T13:15:47.851Z,20.80
2023-04-22T13:18:16.973Z,20.80
2023-04-22T13:20:44.420Z,20.90
2023-04-22T13:23:13.328Z,21.00
2023-04-22T13:25:41.051Z,20.90
2023-04-22T13:28:08.414Z,20.90
2023-04-22T13:30:36.475Z,20.90
2023-04-22T13:33:03.713Z,20.90
2023-04-22T13:35:31.639Z,20.60
2023-04-22T13:37:58.969Z,20.10
2023-04-22T13:40:27.488Z,20.00
2023-04-22T13:42:55.532Z,19.90
2023-04-22T13:45:22.761Z,20.00
2023-04-22T13:47:50.539Z,20.20
2023-04-22T13:50:17.935Z,20.40
2023-04-22T13:52:45.264Z,20.50
2023-04-22T13:55:12.589Z,20.50
2023-04-22T13:57:39.769Z,20.70
2023-04-22T14:00:08.601Z,20.80
2023-04-22T14:02:43.166Z,21.00
2023-04-22T14:05:10.963Z,21.00
2023-04-22T14:07:38.013Z,21.00
2023-04-22T14:10:07.970Z,21.00
2023-04-22T14:12:35.532Z,20.80
2023-04-22T14:15:02.716Z,20.80
2023-04-22T14:17:29.947Z,20.70
2023-04-22T14:19:57.512Z,20.80
2023-04-22T14:22:24.728Z,20.80
2023-04-22T14:24:52.240Z,20.70
2023-04-22T14:27:19.808Z,20.70
2023-04-22T14:29:47.329Z,20.80
2023-04-22T14:32:18.559Z,20.70
2023-04-22T14:34:46.515Z,20.70
2023-04-22T14:37:13.867Z,20.70
2023-04-22T14:39:41.339Z,20.70
2023-04-22T14:42:08.972Z,20.70
2023-04-22T14:44:36.240Z,20.80
2023-04-22T14:47:03.722Z,20.80
2023-04-22T14:49:33.210Z,20.70
2023-04-22T14:52:01.576Z,20.70
2023-04-22T14:54:28.642Z,20.70
2023-04-22T14:56:56.319Z,20.60
2023-04-22T14:59:23.517Z,20.70
2023-04-22T15:01:50.904Z,20.70
2023-04-22T15:04:19.536Z,20.70
2023-04-22T15:06:47.203Z,20.70
2023-04-22T15:09:14.517Z,20.70
2023-04-22T15:11:42.016Z,20.80
2023-04-22T15:14:09.210Z,20.80
2023-04-22T15:16:36.614Z,20.80
2023-04-22T15:19:03.813Z,20.70
2023-04-22T15:21:32.107Z,20.70
2023-04-22T15:23:59.391Z,20.70
2023-04-22T15:26:26.678Z,20.80
2023-04-22T15:28:53.965Z,20.80
2023-04-22T15:31:21.476Z,20.70
2023-04-22T15:33:48.834Z,20.60
2023-04-22T15:36:19.950Z,20.70
2023-04-22T15:38:47.560Z,20.60
2023-04-22T15:41:15.903Z,20.50
2023-04-22T15:43:43.934Z,20.40
2023-04-22T15:46:11.038Z,20.40
2023-04-22T15:48:38.325Z,20.30
2023-04-22T15:51:06.060Z,20.30
2023-04-22T15:53:33.253Z,20.20
2023-04-22T15:56:00.315Z,20.10
2023-04-22T15:58:29.012Z,20.10
2023-04-22T16:01:07.678Z,20.10
2023-04-22T16:03:45.165Z,20.00
2023-04-22T16:06:12.776Z,19.90
2023-04-22T16:08:40.107Z,19.90
2023-04-22T16:11:07.436Z,19.90
2023-04-22T16:13:34.755Z,19.90
2023-04-22T16:16:01.948Z,19.70
2023-04-22T16:18:29.318Z,19.70
2023-04-22T16:20:56.904Z,19.70
2023-04-22T16:23:24.101Z,19.70
2023-04-22T16:25:51.153Z,19.50
2023-04-22T16:28:18.529Z,19.40
2023-04-22T16:30:45.706Z,19.50
2023-04-22T16:33:14.448Z,19.50
2023-04-22T16:35:41.661Z,19.40
2023-04-22T16:38:10.132Z,19.40
2023-04-22T16:40:39.821Z,19.30
2023-04-22T16:43:07.479Z,19.30
2023-04-22T16:45:34.686Z,19.20
2023-04-22T16:48:02.025Z,19.10
2023-04-22T16:50:29.375Z,19.10
2023-04-22T16:52:56.843Z,19.00
2023-04-22T16:55:24.055Z,18.90
2023-04-22T16:57:51.335Z,18.90
2023-04-22T17:00:18.920Z,18.80
2023-04-22T17:02:46.138Z,18.70
2023-04-22T17:05:13.441Z,18.60
2023-04-22T17:07:41.052Z,18.60
2023-04-22T17:10:08.824Z,18.50
2023-04-22T17:12:36.059Z,18.40
2023-04-22T17:15:04.215Z,18.30
2023-04-22T17:17:31.391Z,18.20
2023-04-22T17:19:58.721Z,18.10
2023-04-22T17:22:26.283Z,18.00
2023-04-22T17:24:53.474Z,17.90
2023-04-22T17:27:21.362Z,17.90
2023-04-22T17:29:48.817Z,17.80
2023-04-22T17:32:16.309Z,17.80
2023-04-22T17:34:43.471Z,17.70
2023-04-22T17:37:10.968Z,17.60
2023-04-22T17:39:40.228Z,17.50
2023-04-22T17:42:07.724Z,17.50
2023-04-22T17:44:35.034Z,17.40
2023-04-22T17:47:02.777Z,17.30
2023-04-22T17:49:31.390Z,17.20
2023-04-22T17:51:58.554Z,17.20
2023-04-22T17:54:26.035Z,17.10
2023-04-22T17:56:53.215Z,17.00
2023-04-22T17:59:20.652Z,16.90
2023-04-22T18:01:47.778Z,16.80
2023-04-22T18:04:15.026Z,16.80
2023-04-22T18:06:42.219Z,16.70
2023-04-22T18:09:09.593Z,16.70
2023-04-22T18:11:37.113Z,16.60
2023-04-22T18:14:04.434Z,16.50
2023-04-22T18:16:32.470Z,16.40
2023-04-22T18:19:02.481Z,16.40
2023-04-22T18:21:29.912Z,16.30
2023-04-22T18:23:57.129Z,16.20
2023-04-22T18:26:24.516Z,16.20
2023-04-22T18:28:51.644Z,16.10
2023-04-22T18:31:18.768Z,16.00
2023-04-22T18:33:46.138Z,15.90
2023-04-22T18:36:13.337Z,15.80
2023-04-22T18:38:41.926Z,15.80
2023-04-22T18:41:11.229Z,15.70
2023-04-22T18:43:38.280Z,15.70
2023-04-22T18:46:05.536Z,15.60
2023-04-22T18:48:32.702Z,15.50
2023-04-22T18:51:00.568Z,15.50
2023-04-22T18:53:27.892Z,15.40
2023-04-22T18:55:55.326Z,15.40
2023-04-22T18:58:23.488Z,15.40
2023-04-22T19:00:51.035Z,15.30
2023-04-22T19:03:19.679Z,15.30
2023-04-22T19:05:47.209Z,15.20
2023-04-22T19:08:14.348Z,15.10
2023-04-22T19:10:41.630Z,15.00
2023-04-22T19:13:15.847Z,14.90
2023-04-22T19:15:50.573Z,14.90
2023-04-22T19:18:18.215Z,14.80
2023-04-22T19:20:46.499Z,14.70
2023-04-22T19:23:14.051Z,14.70
2023-04-22T19:25:41.799Z,14.60
2023-04-22T19:28:08.957Z,14.60
2023-04-22T19:30:36.642Z,14.50
2023-04-22T19:33:04.042Z,14.40
2023-04-22T19:35:32.135Z,14.30
2023-04-22T19:38:01.111Z,14.30
2023-04-22T19:40:29.678Z,14.20
2023-04-22T19:42:59.075Z,14.20
2023-04-22T19:45:27.391Z,14.10
2023-04-22T19:47:54.728Z,14.00
2023-04-22T19:50:22.672Z,14.00
2023-04-22T19:52:51.106Z,13.90
2023-04-22T19:55:19.710Z,13.80
2023-04-22T19:57:47.472Z,13.80
2023-04-22T20:00:15.048Z,13.70
2023-04-22T20:02:43.036Z,13.70
2023-04-22T20:05:11.132Z,13.60
2023-04-22T20:07:39.817Z,13.60
2023-04-22T20:10:09.904Z,13.60
2023-04-22T20:12:38.379Z,13.50
2023-04-22T20:15:06.623Z,13.40
2023-04-22T20:17:38.529Z,13.30
2023-04-22T20:20:08.325Z,13.30
2023-04-22T20:22:36.392Z,13.30
2023-04-22T20:25:07.879Z,13.20
2023-04-22T20:27:35.736Z,13.20
2023-04-22T20:30:03.904Z,13.20
2023-04-22T20:32:31.662Z,13.10
2023-04-22T20:34:59.397Z,13.00
2023-04-22T20:37:28.653Z,13.10
2023-04-22T20:39:57.472Z,13.00
2023-04-22T20:42:25.728Z,13.00
2023-04-22T20:44:53.114Z,12.90
2023-04-22T20:47:20.874Z,12.80
2023-04-22T20:49:48.061Z,12.70
2023-04-22T20:52:15.202Z,12.70
2023-04-22T20:54:43.480Z,12.70
2023-04-22T20:57:11.023Z,12.50
2023-04-22T20:59:38.145Z,12.50
2023-04-22T21:02:06.687Z,12.40
2023-04-22T21:04:34.932Z,12.40
2023-04-22T21:07:05.297Z,12.40
2023-04-22T21:09:33.011Z,12.30
2023-04-22T21:12:01.037Z,12.30
2023-04-22T21:14:28.463Z,12.20
2023-04-22T21:17:03.023Z,12.20
2023-04-22T21:19:32.983Z,12.10
2023-04-22T21:22:06.215Z,12.10
2023-04-22T21:24:35.166Z,12.10
2023-04-22T21:27:03.083Z,12.10
2023-04-22T21:29:30.631Z,12.10
2023-04-22T21:32:07.232Z,12.00
2023-04-22T21:34:36.205Z,12.10
2023-04-22T21:37:04.581Z,12.10
2023-04-22T21:39:31.892Z,12.00
2023-04-22T21:41:59.103Z,12.00
2023-04-22T21:44:26.336Z,12.00
2023-04-22T21:46:53.412Z,12.00
2023-04-22T21:49:20.808Z,11.90
2023-04-22T21:51:48.404Z,11.90
2023-04-22T21:54:15.749Z,11.90
2023-04-22T21:56:42.960Z,11.90
2023-04-22T21:59:10.005Z,12.00
2023-04-22T22:01:37.088Z,12.00
2023-04-22T22:04:04.484Z,12.00
2023-04-22T22:06:33.301Z,12.00
2023-04-22T22:09:00.473Z,12.10
2023-04-22T22:11:31.368Z,12.10
2023-04-22T22:13:59.208Z,12.10
2023-04-22T22:16:26.438Z,12.00
2023-04-22T22:18:53.628Z,12.00
2023-04-22T22:21:20.753Z,11.90
2023-04-22T22:23:47.972Z,11.90
2023-04-22T22:26:15.100Z,11.80
2023-04-22T22:28:42.136Z,11.80
2023-04-22T22:31:09.257Z,11.80
2023-04-22T22:33:36.277Z,11.70
2023-04-22T22:36:03.527Z,11.70
2023-04-22T22:38:30.666Z,11.70
2023-04-22T22:40:57.729Z,11.70
2023-04-22T22:43:24.824Z,11.70
2023-04-22T22:45:52.048Z,11.60
2023-04-22T22:48:19.568Z,11.60
2023-04-22T22:50:46.762Z,11.60
2023-04-22T22:53:13.908Z,11.50
2023-04-22T22:55:41.026Z,11.50
2023-04-22T22:58:08.154Z,11.50
2023-04-22T23:00:35.339Z,11.40
2023-04-22T23:03:02.911Z,11.40
2023-04-22T23:05:30.547Z,11.40
2023-04-22T23:07:57.570Z,11.30
2023-04-22T23:10:24.745Z,11.30
2023-04-22T23:12:51.786Z,11.20
2023-04-22T23:15:18.962Z,11.20
2023-04-22T23:17:46.367Z,11.20
2023-04-22T23:20:14.189Z,11.10
2023-04-22T23:22:42.905Z,11.10
2023-04-22T23:25:10.756Z,11.00
2023-04-22T23:27:38.113Z,11.00
2023-04-22T23:30:05.929Z,11.00
2023-04-22T23:32:35.469Z,11.00
2023-04-22T23:35:03.984Z,11.10
2023-04-22T23:37:31.659Z,11.00
2023-04-22T23:39:58.835Z,11.00
2023-04-22T23:42:26.117Z,11.00
2023-04-22T23:44:53.243Z,10.90
2023-04-22T23:47:20.441Z,10.90
2023-04-22T23:49:47.823Z,11.00
2023-04-22T23:52:14.871Z,10.90
2023-04-22T23:54:42.459Z,10.90
2023-04-22T23:57:09.956Z,10.80
2023-04-22T23:59:37.453Z,10.70
